Time;durP1;ratioP1;P1;durP2;ratioP2;P2;SDS_P1;SDS_P2;PMS_P1;PMS_P2;Temp;Humidity;BMP_temperature;BMP_pressure;BME280_temperature;BME280_humidity;BME280_pressure;Samples;Min_cycle;Max_cycle;Signal;HPM_P1;HPM_P2
2021/12/22 00:00:22;;;;;;;13.63;4.88;;;0.50;96.00;;;;;;10107028;28;20040;-65
2021/12/22 00:05:19;;;;;;;13.60;5.13;;;0.40;95.90;;;;;;10111991;28;20094;-64
2021/12/22 00:10:10;;;;;;;12.27;4.68;;;0.40;96.10;;;;;;10111937;28;20032;-64
2021/12/22 00:15:02;;;;;;;10.07;4.57;;;0.40;96.00;;;;;;10107544;28;20488;-64
2021/12/22 00:19:53;;;;;;;12.45;5.80;;;0.30;96.00;;;;;;10118902;28;20102;-64
2021/12/22 00:24:43;;;;;;;13.73;5.15;;;0.40;96.10;;;;;;10113500;28;20582;-64
2021/12/22 00:29:35;;;;;;;9.90;4.03;;;0.50;95.80;;;;;;10105603;28;20120;-64
2021/12/22 00:34:27;;;;;;;17.27;5.68;;;0.50;95.70;;;;;;10119179;28;20028;-64
2021/12/22 00:39:18;;;;;;;12.85;5.32;;;0.40;95.80;;;;;;10105705;28;20041;-64
2021/12/22 00:44:12;;;;;;;16.00;6.50;;;0.30;95.90;;;;;;10115859;28;20032;-63
2021/12/22 00:49:03;;;;;;;16.60;5.97;;;0.40;95.90;;;;;;10119849;28;20035;-64
2021/12/22 00:53:53;;;;;;;14.45;5.53;;;0.40;95.80;;;;;;10122959;28;20055;-64
2021/12/22 00:58:44;;;;;;;13.68;4.93;;;0.30;95.80;;;;;;10115607;28;20045;-65
2021/12/22 01:03:35;;;;;;;13.93;5.13;;;0.30;95.90;;;;;;10124927;28;20048;-65
2021/12/22 01:08:25;;;;;;;14.32;4.88;;;0.30;95.90;;;;;;10114555;28;20024;-63
2021/12/22 01:13:16;;;;;;;18.50;5.88;;;0.40;95.80;;;;;;10121623;28;20536;-64
2021/12/22 01:18:13;;;;;;;16.20;5.10;;;0.40;95.60;;;;;;10130542;28;20104;-64
2021/12/22 01:23:06;;;;;;;16.20;5.65;;;0.40;95.80;;;;;;10123968;28;20184;-64
2021/12/22 01:27:58;;;;;;;15.70;5.15;;;0.40;95.60;;;;;;10126569;28;20035;-64
2021/12/22 01:32:51;;;;;;;20.40;6.65;;;0.50;95.50;;;;;;10121634;28;20138;-64
2021/12/22 01:37:42;;;;;;;12.43;4.47;;;0.40;95.60;;;;;;10122488;28;20052;-64
2021/12/22 01:42:33;;;;;;;13.20;5.63;;;0.40;95.50;;;;;;10115133;28;20033;-67
2021/12/22 01:52:33;;;;;;;12.68;4.82;;;0.50;95.30;;;;;;10113606;28;20071;-66
2021/12/22 01:57:24;;;;;;;11.32;5.22;;;0.40;95.40;;;;;;10119602;28;20051;-65
2021/12/22 02:02:16;;;;;;;13.85;5.47;;;0.40;95.60;;;;;;10120555;28;20660;-65
2021/12/22 02:07:08;;;;;;;10.88;5.25;;;0.40;95.50;;;;;;10115015;28;20109;-65
2021/12/22 02:11:58;;;;;;;18.70;6.15;;;0.30;95.40;;;;;;10113066;28;20021;-66
2021/12/22 02:16:49;;;;;;;17.17;5.68;;;0.30;95.70;;;;;;10128083;28;20037;-65
2021/12/22 02:21:46;;;;;;;15.00;5.60;;;0.40;95.50;;;;;;10118699;28;20332;-66
2021/12/22 02:26:42;;;;;;;12.98;5.57;;;0.30;95.50;;;;;;10120611;28;20044;-66
2021/12/22 02:31:43;;;;;;;;;;;0.20;95.50;;;;;;10111422;28;20044;-65
2021/12/22 02:36:39;;;;;;;11.25;4.47;;;0.30;95.40;;;;;;10116486;28;20130;-66
2021/12/22 02:41:31;;;;;;;13.50;4.95;;;0.30;95.40;;;;;;10113396;28;20483;-67
2021/12/22 02:46:29;;;;;;;15.32;5.22;;;0.10;95.20;;;;;;10107822;28;20106;-66
2021/12/22 02:51:20;;;;;;;14.65;4.75;;;0.00;95.30;;;;;;10117712;28;20021;-66
2021/12/22 03:06:23;;;;;;;11.63;5.28;;;0.00;95.40;;;;;;10114622;28;20293;-67
2021/12/22 03:11:13;;;;;;;15.80;5.25;;;0.10;95.40;;;;;;10114213;28;20033;-67
2021/12/22 03:16:04;;;;;;;11.65;4.63;;;0.20;95.20;;;;;;10128108;28;20024;-67
2021/12/22 03:21:04;;;;;;;12.65;5.25;;;0.10;95.40;;;;;;10111076;28;20067;-67
2021/12/22 03:25:54;;;;;;;16.52;6.10;;;0.10;95.40;;;;;;10119700;28;20066;-66
2021/12/22 03:30:45;;;;;;;17.48;5.70;;;0.20;95.20;;;;;;10119429;28;20109;-67
2021/12/22 03:35:38;;;;;;;16.45;6.57;;;0.20;95.20;;;;;;10113035;28;20448;-66
2021/12/22 03:40:29;;;;;;;14.05;5.07;;;0.30;95.30;;;;;;10124646;28;20044;-67
2021/12/22 03:45:20;;;;;;;13.93;5.65;;;0.30;95.10;;;;;;10117708;28;20402;-66
2021/12/22 03:50:14;;;;;;;16.75;6.22;;;0.30;95.00;;;;;;10107974;28;20033;-67
2021/12/22 03:55:06;;;;;;;18.02;5.95;;;0.20;95.10;;;;;;10111182;28;20029;-68
2021/12/22 03:59:59;;;;;;;16.40;5.40;;;0.20;95.20;;;;;;10110006;28;20029;-69
2021/12/22 04:04:50;;;;;;;12.35;5.07;;;0.10;95.30;;;;;;10117043;28;20094;-68
2021/12/22 04:09:41;;;;;;;13.25;4.70;;;0.10;95.30;;;;;;10108301;28;20337;-68
2021/12/22 04:14:32;;;;;;;14.80;5.32;;;0.10;95.30;;;;;;10115966;28;20653;-68
2021/12/22 04:19:23;;;;;;;10.80;4.65;;;-0.10;95.40;;;;;;10120948;28;20037;-69
2021/12/22 04:24:13;;;;;;;15.50;5.63;;;0.00;95.40;;;;;;10109851;28;20053;-69
2021/12/22 04:29:04;;;;;;;13.77;5.15;;;0.10;95.20;;;;;;10121132;28;20031;-68
2021/12/22 04:33:54;;;;;;;13.30;4.53;;;0.10;95.20;;;;;;10125166;28;20036;-69
2021/12/22 04:38:45;;;;;;;12.05;5.60;;;0.10;95.10;;;;;;10115818;28;20040;-69
2021/12/22 04:43:36;;;;;;;15.88;5.32;;;0.00;95.20;;;;;;10125732;28;20044;-70
2021/12/22 04:48:26;;;;;;;15.02;5.03;;;0.00;95.20;;;;;;10119333;28;20047;-69
2021/12/22 04:53:23;;;;;;;9.57;4.80;;;0.00;95.20;;;;;;10117619;28;20032;-68
2021/12/22 04:58:14;;;;;;;8.98;4.00;;;0.00;95.00;;;;;;10113324;28;20423;-69
2021/12/22 05:03:05;;;;;;;10.52;4.60;;;0.00;95.10;;;;;;10129518;28;20060;-70
2021/12/22 05:07:57;;;;;;;12.48;5.55;;;-0.20;95.00;;;;;;10117161;28;20029;-70
2021/12/22 05:12:48;;;;;;;13.00;5.57;;;-0.20;95.20;;;;;;10123453;28;20556;-70
2021/12/22 05:22:30;;;;;;;15.70;6.03;;;-0.20;95.10;;;;;;10124471;28;20247;-71
2021/12/22 05:27:21;;;;;;;12.48;4.78;;;-0.20;95.00;;;;;;10123653;28;20086;-72
2021/12/22 05:32:11;;;;;;;12.65;5.82;;;-0.20;95.00;;;;;;10125318;28;20043;-73
2021/12/22 05:37:03;;;;;;;13.07;4.47;;;-0.20;95.00;;;;;;10112000;28;20096;-67
2021/12/22 05:41:54;;;;;;;12.48;4.10;;;-0.10;94.80;;;;;;10117800;28;20125;-70
2021/12/22 05:46:45;;;;;;;9.10;4.15;;;-0.20;94.90;;;;;;10109803;28;20470;-73
2021/12/22 05:51:35;;;;;;;13.45;5.22;;;-0.30;94.90;;;;;;10120783;28;20035;-72
2021/12/22 05:56:28;;;;;;;10.00;4.30;;;-0.10;95.00;;;;;;10125714;28;20102;-73
2021/12/22 06:01:19;;;;;;;9.75;4.60;;;-0.20;94.80;;;;;;10125107;28;20111;-74
2021/12/22 06:06:17;;;;;;;11.02;4.32;;;-0.30;94.90;;;;;;10122450;28;20569;-73
2021/12/22 06:11:07;;;;;;;12.98;4.28;;;-0.30;94.80;;;;;;10125994;28;20026;-73
2021/12/22 06:15:58;;;;;;;12.20;5.07;;;-0.40;94.90;;;;;;10131362;28;20035;-73
2021/12/22 06:20:49;;;;;;;14.60;5.25;;;-0.60;94.90;;;;;;10128650;28;20044;-74
2021/12/22 06:25:40;;;;;;;11.20;5.05;;;-0.50;95.20;;;;;;10128594;28;20075;-74
2021/12/22 06:30:31;;;;;;;10.02;4.35;;;-0.50;94.90;;;;;;10133671;28;20074;-75
2021/12/22 06:35:23;;;;;;;13.27;5.32;;;-0.40;94.80;;;;;;10131683;28;20024;-73
2021/12/22 06:40:14;;;;;;;14.68;4.93;;;-0.50;94.80;;;;;;10128381;28;20083;-72
2021/12/22 06:45:07;;;;;;;11.40;5.22;;;-0.50;94.80;;;;;;10131987;28;20024;-74
2021/12/22 06:49:58;;;;;;;14.77;5.60;;;-0.40;94.90;;;;;;10126497;28;20036;-72
2021/12/22 06:54:49;;;;;;;12.32;4.97;;;-0.50;94.60;;;;;;10126391;28;20066;-70
2021/12/22 06:59:39;;;;;;;12.15;4.55;;;-0.50;94.60;;;;;;10129126;28;20045;-73
2021/12/22 07:04:30;;;;;;;10.77;4.95;;;-0.70;94.70;;;;;;10128218;28;20041;-72
2021/12/22 07:09:21;;;;;;;16.02;5.22;;;-0.70;94.60;;;;;;10127110;28;20025;-72
2021/12/22 07:14:15;;;;;;;14.65;5.93;;;-0.70;94.40;;;;;;10130849;28;20606;-72
2021/12/22 07:19:10;;;;;;;13.68;5.40;;;-0.80;94.30;;;;;;10127571;28;20582;-72
2021/12/22 07:24:00;;;;;;;14.35;4.65;;;-0.90;94.40;;;;;;10132418;28;20360;-71
2021/12/22 07:28:55;;;;;;;12.98;5.93;;;-1.00;94.50;;;;;;10128287;28;20039;-71
2021/12/22 07:34:23;;;;;;;14.50;5.47;;;-0.90;94.50;;;;;;10126373;28;20028;-71
2021/12/22 07:39:13;;;;;;;16.30;4.85;;;-0.90;94.50;;;;;;10150918;28;20581;-73
2021/12/22 07:44:04;;;;;;;12.20;4.95;;;-0.90;94.50;;;;;;10134888;28;20140;-73
2021/12/22 07:48:55;;;;;;;15.60;5.22;;;-0.80;94.40;;;;;;10134132;28;20266;-74
2021/12/22 07:53:45;;;;;;;18.35;5.90;;;-0.70;94.30;;;;;;10134784;28;20021;-73
2021/12/22 07:58:36;;;;;;;12.77;5.55;;;-0.70;94.40;;;;;;10138997;28;20050;-74
2021/12/22 08:03:27;;;;;;;12.45;5.60;;;-0.60;94.40;;;;;;10131378;28;20031;-73
2021/12/22 08:08:18;;;;;;;16.73;6.53;;;-0.50;94.40;;;;;;10127394;28;20143;-72
2021/12/22 08:13:09;;;;;;;12.13;5.15;;;-0.50;94.60;;;;;;10128510;28;20028;-72
2021/12/22 08:18:00;;;;;;;11.15;5.15;;;-0.40;94.60;;;;;;10125254;28;20040;-73
2021/12/22 08:22:51;;;;;;;11.15;5.45;;;-0.30;94.40;;;;;;10137705;28;20961;-74
2021/12/22 08:27:41;;;;;;;10.05;5.30;;;-0.40;94.50;;;;;;10125195;28;20028;-73
2021/12/22 08:32:33;;;;;;;16.40;5.93;;;-0.30;94.70;;;;;;10127555;28;20036;-76
2021/12/22 08:42:34;;;;;;;18.08;5.35;;;-0.20;94.90;;;;;;10128144;28;20082;-75
2021/12/22 08:47:25;;;;;;;15.63;5.82;;;-0.20;94.80;;;;;;10124564;28;20081;-75
2021/12/22 08:52:16;;;;;;;18.25;5.80;;;-0.10;94.80;;;;;;10127124;28;20044;-72
2021/12/22 08:57:07;;;;;;;17.48;5.82;;;0.00;94.80;;;;;;10126179;28;20120;-72
2021/12/22 09:01:58;;;;;;;14.63;5.78;;;0.00;94.80;;;;;;10130846;28;20067;-73
2021/12/22 09:06:52;;;;;;;16.10;6.20;;;0.00;94.80;;;;;;10129493;28;20076;-75
2021/12/22 09:11:42;;;;;;;17.77;5.97;;;0.00;94.70;;;;;;10135218;28;20020;-74
2021/12/22 09:16:34;;;;;;;15.57;5.80;;;-0.10;94.70;;;;;;10133648;28;20483;-72
2021/12/22 09:21:25;;;;;;;15.13;5.78;;;-0.20;94.70;;;;;;10134779;28;20414;-71
2021/12/22 09:26:17;;;;;;;18.38;6.25;;;0.00;94.60;;;;;;10144803;28;20048;-73
2021/12/22 09:31:09;;;;;;;16.05;6.20;;;-0.20;94.50;;;;;;10134496;28;20021;-74
2021/12/22 09:36:01;;;;;;;12.85;4.63;;;-0.10;94.50;;;;;;10134237;28;20471;-74
2021/12/22 09:40:51;;;;;;;13.90;5.22;;;0.00;94.20;;;;;;10129451;28;20029;-74
2021/12/22 09:45:47;;;;;;;15.23;5.90;;;0.00;94.30;;;;;;10134418;28;20531;-75
2021/12/22 09:55:34;;;;;;;16.88;5.88;;;-0.20;94.70;;;;;;10132059;28;20048;-73
2021/12/22 10:00:25;;;;;;;15.95;6.05;;;-0.10;94.60;;;;;;10138744;28;20394;-74
2021/12/22 10:05:16;;;;;;;16.05;7.18;;;0.20;94.30;;;;;;10135569;28;20141;-74
2021/12/22 10:10:11;;;;;;;18.33;7.70;;;0.20;94.30;;;;;;10136649;28;20049;-75
2021/12/22 10:15:07;;;;;;;15.45;6.57;;;0.30;94.10;;;;;;10130303;28;20032;-74
2021/12/22 10:19:59;;;;;;;;;;;0.40;94.30;;;;;;10132320;28;20488;-73
2021/12/22 10:25:02;;;;;;;11.43;4.88;;;0.20;94.20;;;;;;10132431;28;19916;-74
2021/12/22 10:29:52;;;;;;;15.68;7.13;;;0.40;94.10;;;;;;10135630;28;20021;-76
2021/12/22 10:34:59;;;;;;;12.65;5.50;;;0.30;94.10;;;;;;10128387;28;20032;-73
2021/12/22 10:39:50;;;;;;;16.05;7.30;;;0.20;94.10;;;;;;10130823;28;20045;-73
2021/12/22 10:44:47;;;;;;;17.95;6.85;;;0.20;94.20;;;;;;10130565;28;20073;-72
2021/12/22 10:49:38;;;;;;;13.30;5.65;;;0.30;94.00;;;;;;10129369;28;20021;-72
2021/12/22 10:54:36;;;;;;;19.02;7.35;;;0.40;93.80;;;;;;10122896;28;20032;-74
2021/12/22 10:59:26;;;;;;;18.35;6.70;;;0.30;94.00;;;;;;10133158;28;20028;-73
2021/12/22 11:04:23;;;;;;;16.23;7.20;;;0.40;94.00;;;;;;10144526;28;20506;-75
2021/12/22 11:09:15;;;;;;;14.85;5.93;;;0.40;94.00;;;;;;10130833;28;20474;-75
2021/12/22 11:14:46;;;;;;;19.10;7.43;;;0.30;93.70;;;;;;10133868;28;20516;-73
2021/12/22 11:19:52;;;;;;;15.95;6.90;;;0.40;93.90;;;;;;10095034;28;20131;-74
2021/12/22 11:24:54;;;;;;;16.25;6.32;;;0.40;93.80;;;;;;10129020;28;20045;-72
2021/12/22 11:29:51;;;;;;;12.65;5.93;;;0.40;93.80;;;;;;10122220;28;20052;-74
2021/12/22 11:34:47;;;;;;;14.20;6.18;;;0.70;93.60;;;;;;10128034;28;20109;-72
2021/12/22 11:39:38;;;;;;;18.27;6.18;;;0.70;93.60;;;;;;10135681;28;20625;-74
2021/12/22 11:44:31;;;;;;;17.77;7.68;;;0.80;93.70;;;;;;10125410;28;20104;-75
2021/12/22 11:49:22;;;;;;;17.30;7.13;;;0.80;93.60;;;;;;10126756;28;20029;-75
2021/12/22 11:54:13;;;;;;;19.30;6.60;;;1.00;93.40;;;;;;10127925;28;20033;-75
2021/12/22 11:59:06;;;;;;;13.82;6.13;;;0.90;93.60;;;;;;10135965;28;20039;-76
2021/12/22 12:04:15;;;;;;;18.08;7.00;;;1.00;93.60;;;;;;10138592;28;20025;-75
2021/12/22 12:09:11;;;;;;;17.17;7.93;;;1.30;93.40;;;;;;10136666;28;20099;-72
2021/12/22 12:14:07;;;;;;;11.90;5.93;;;1.40;93.40;;;;;;10134643;28;20021;-73
2021/12/22 12:24:44;;;;;;;15.57;6.82;;;1.50;93.30;;;;;;10131978;28;20087;-71
2021/12/22 12:29:55;;;;;;;17.52;7.50;;;1.60;93.20;;;;;;10128698;28;20503;-74
2021/12/22 12:34:46;;;;;;;20.70;7.75;;;1.60;93.30;;;;;;10127362;28;20024;-75
2021/12/22 12:39:54;;;;;;;15.95;7.85;;;1.70;93.20;;;;;;10125143;28;20045;-74
2021/12/22 12:44:45;;;;;;;14.13;7.10;;;1.70;93.20;;;;;;10149193;28;20024;-74
2021/12/22 12:49:39;;;;;;;19.40;7.57;;;1.70;93.20;;;;;;10137390;28;20032;-75
2021/12/22 12:54:35;;;;;;;20.63;7.68;;;1.70;93.20;;;;;;10142609;28;20044;-74
2021/12/22 12:59:38;;;;;;;15.70;7.20;;;1.80;93.20;;;;;;10133259;28;20463;-76
2021/12/22 13:04:38;;;;;;;16.92;8.18;;;1.70;93.10;;;;;;10137233;28;21148;-75
2021/12/22 13:09:31;;;;;;;14.30;7.63;;;1.70;93.10;;;;;;10131891;28;20372;-73
2021/12/22 13:19:44;;;;;;;17.38;6.72;;;1.60;93.00;;;;;;10133211;28;20102;-76
2021/12/22 13:24:43;;;;;;;15.90;7.45;;;1.80;93.00;;;;;;10132419;28;20032;-74
2021/12/22 13:29:35;;;;;;;19.15;6.80;;;1.80;92.80;;;;;;10130787;28;20052;-73
2021/12/22 13:34:40;;;;;;;16.85;7.10;;;1.70;92.90;;;;;;10135632;28;20031;-75
2021/12/22 13:39:41;;;;;;;15.85;7.30;;;1.90;92.80;;;;;;10133858;28;20040;-74
2021/12/22 13:44:39;;;;;;;14.75;7.22;;;1.90;92.70;;;;;;10132879;28;20537;-75
2021/12/22 13:49:31;;;;;;;16.52;7.78;;;1.80;92.60;;;;;;10130840;28;20548;-76
2021/12/22 13:54:33;;;;;;;18.15;7.75;;;1.80;92.70;;;;;;10132320;28;20069;-74
2021/12/22 13:59:27;;;;;;;19.90;6.80;;;2.00;92.60;;;;;;10132340;28;20199;-76
2021/12/22 14:04:20;;;;;;;17.35;8.02;;;2.00;92.50;;;;;;10132221;28;20032;-76
2021/12/22 14:09:18;;;;;;;16.60;8.07;;;1.90;92.40;;;;;;10132857;28;20438;-77
2021/12/22 14:14:25;;;;;;;25.05;9.25;;;1.80;92.50;;;;;;10132157;28;20035;-76
2021/12/22 14:19:21;;;;;;;16.52;8.85;;;1.80;92.60;;;;;;10131317;28;20032;-79
2021/12/22 14:24:14;;;;;;;16.35;7.82;;;1.80;92.40;;;;;;10130476;28;20049;-79
2021/12/22 14:29:06;;;;;;;14.80;7.03;;;1.70;92.50;;;;;;10126113;28;20029;-76
2021/12/22 14:34:07;;;;;;;15.43;6.50;;;1.70;92.50;;;;;;10128269;28;20454;-77
2021/12/22 14:39:00;;;;;;;16.85;7.70;;;1.60;92.40;;;;;;10127269;28;20043;-78
2021/12/22 14:43:51;;;;;;;12.80;6.85;;;1.60;92.40;;;;;;10133269;28;20031;-75
2021/12/22 14:48:45;;;;;;;16.35;7.45;;;1.50;92.40;;;;;;10129292;28;20028;-75
2021/12/22 14:53:42;;;;;;;18.75;7.38;;;1.60;92.30;;;;;;10132626;28;20020;-74
2021/12/22 14:58:33;;;;;;;16.48;7.18;;;1.50;92.20;;;;;;10132174;28;20043;-78
2021/12/22 15:03:24;;;;;;;14.65;7.47;;;1.50;92.20;;;;;;10128190;28;20555;-71
2021/12/22 15:08:14;;;;;;;12.95;6.75;;;1.40;92.30;;;;;;10126633;28;20401;-76
2021/12/22 15:13:05;;;;;;;16.30;7.35;;;1.20;92.40;;;;;;10129861;28;20017;-73
2021/12/22 15:17:59;;;;;;;15.52;5.82;;;1.00;92.50;;;;;;10126571;28;20047;-73
2021/12/22 15:22:50;;;;;;;16.27;6.95;;;0.80;92.70;;;;;;10130178;28;20239;-77
2021/12/22 15:27:41;;;;;;;22.85;10.85;;;0.60;92.80;;;;;;10136823;28;20074;-76
2021/12/22 15:32:32;;;;;;;16.05;7.65;;;0.40;92.90;;;;;;10130698;28;20078;-77
2021/12/22 15:37:23;;;;;;;15.82;6.43;;;0.20;93.00;;;;;;10127639;28;20366;-77
2021/12/22 15:42:14;;;;;;;19.23;6.97;;;0.30;92.90;;;;;;10129589;28;20504;-72
2021/12/22 15:47:08;;;;;;;16.20;7.20;;;0.20;92.80;;;;;;10115332;28;20116;-80
2021/12/22 15:51:58;;;;;;;20.42;7.13;;;0.00;92.80;;;;;;10129028;28;20039;-81
2021/12/22 15:56:50;;;;;;;14.65;6.05;;;0.00;92.90;;;;;;10133324;28;20577;-78
2021/12/22 16:01:41;;;;;;;25.23;8.75;;;0.10;92.90;;;;;;10134254;28;20044;-78
2021/12/22 16:06:32;;;;;;;20.48;8.75;;;0.10;92.80;;;;;;10127891;28;20378;-80
2021/12/22 16:11:22;;;;;;;19.17;6.90;;;-0.10;92.90;;;;;;10132514;28;20033;-78
2021/12/22 16:16:13;;;;;;;21.50;7.68;;;0.00;92.90;;;;;;10129728;28;20044;-77
2021/12/22 16:21:04;;;;;;;17.20;6.97;;;0.00;92.90;;;;;;10136179;28;20043;-75
2021/12/22 16:25:58;;;;;;;17.80;7.22;;;0.10;92.80;;;;;;10135920;28;20419;-76
2021/12/22 16:30:49;;;;;;;22.02;7.47;;;0.10;92.90;;;;;;10132606;28;20032;-72
2021/12/22 16:35:40;;;;;;;22.17;6.90;;;0.10;92.90;;;;;;10135237;28;20036;-75
2021/12/22 16:40:31;;;;;;;21.23;7.78;;;0.10;93.00;;;;;;10138404;28;20041;-73
2021/12/22 16:45:22;;;;;;;16.75;6.45;;;0.20;93.10;;;;;;10126006;28;20041;-79
2021/12/22 16:50:12;;;;;;;20.33;7.18;;;0.30;93.10;;;;;;10135705;28;20024;-76
2021/12/22 16:55:03;;;;;;;22.73;9.52;;;0.30;93.10;;;;;;10128995;28;20037;-76
2021/12/22 16:59:54;;;;;;;20.08;6.95;;;0.40;93.20;;;;;;10134277;28;20036;-79
2021/12/22 17:04:45;;;;;;;19.02;7.35;;;0.40;93.10;;;;;;10135686;28;20055;-79
2021/12/22 17:09:35;;;;;;;19.20;7.38;;;0.30;93.10;;;;;;10138709;28;20439;-77
2021/12/22 17:14:26;;;;;;;15.32;6.65;;;0.20;93.30;;;;;;10145683;28;20347;-77
2021/12/22 17:19:17;;;;;;;20.10;7.18;;;0.20;93.30;;;;;;10144298;28;20451;-77
2021/12/22 17:24:08;;;;;;;20.15;7.53;;;0.10;93.20;;;;;;10134973;28;20045;-73
2021/12/22 17:28:58;;;;;;;14.85;7.13;;;0.10;93.30;;;;;;10140915;28;20017;-74
2021/12/22 17:33:49;;;;;;;17.17;7.10;;;0.10;93.30;;;;;;10131185;28;20026;-73
2021/12/22 17:38:40;;;;;;;16.40;7.80;;;-0.10;93.30;;;;;;10132719;28;20435;-74
2021/12/22 17:43:31;;;;;;;16.58;7.38;;;-0.10;93.50;;;;;;10133296;28;20391;-76
2021/12/22 17:48:23;;;;;;;17.70;7.45;;;0.40;93.50;;;;;;10133449;28;20641;-77
2021/12/22 17:53:13;;;;;;;19.00;8.10;;;0.80;92.90;;;;;;10129918;28;20396;-76
2021/12/22 17:58:10;;;;;;;21.00;8.25;;;0.80;93.00;;;;;;10125895;28;20498;-71
2021/12/22 18:03:00;;;;;;;;;;;1.00;92.90;;;;;;10129792;28;20349;-71
2021/12/22 18:07:51;;;;;;;17.33;6.28;;;1.10;93.00;;;;;;10129560;28;20252;-74
2021/12/22 18:12:42;;;;;;;12.57;6.15;;;0.60;93.30;;;;;;10128524;28;20438;-76
2021/12/22 18:17:36;;;;;;;16.00;7.10;;;0.30;93.70;;;;;;10134481;28;20094;-78
2021/12/22 18:22:27;;;;;;;18.25;7.18;;;0.20;93.80;;;;;;10127325;28;20024;-77
2021/12/22 18:27:18;;;;;;;19.15;7.28;;;0.10;93.90;;;;;;10131070;28;20147;-78
2021/12/22 18:32:09;;;;;;;20.85;7.57;;;0.10;93.40;;;;;;10124180;28;20034;-76
2021/12/22 18:37:03;;;;;;;15.82;7.68;;;0.00;93.60;;;;;;10123935;28;20530;-76
2021/12/22 18:41:56;;;;;;;20.40;7.70;;;-0.10;93.80;;;;;;10134784;28;20059;-77
2021/12/22 18:46:47;;;;;;;17.05;7.07;;;-0.20;93.80;;;;;;10133835;28;20120;-78
2021/12/22 18:51:38;;;;;;;22.02;7.97;;;-0.20;93.80;;;;;;10133730;28;20072;-78
2021/12/22 18:56:30;;;;;;;17.42;7.32;;;-0.20;93.70;;;;;;10121954;28;20051;-77
2021/12/22 19:01:22;;;;;;;17.30;7.57;;;-0.30;93.80;;;;;;10126677;28;20355;-76
2021/12/22 19:06:14;;;;;;;21.63;7.65;;;-0.20;93.70;;;;;;10125588;28;20110;-78
2021/12/22 19:11:07;;;;;;;22.85;8.13;;;-0.30;93.70;;;;;;10131019;28;20032;-80
2021/12/22 19:15:57;;;;;;;16.65;7.63;;;-0.40;93.60;;;;;;10125138;28;20048;-76
2021/12/22 19:20:48;;;;;;;16.60;7.40;;;-0.40;93.70;;;;;;10132674;28;20048;-77
2021/12/22 19:25:39;;;;;;;17.20;7.53;;;-0.50;93.80;;;;;;10132027;28;20378;-73
2021/12/22 19:30:32;;;;;;;15.57;7.13;;;-0.50;93.80;;;;;;10129170;28;20028;-75
2021/12/22 19:35:23;;;;;;;22.35;8.55;;;-0.50;93.80;;;;;;10136132;28;20430;-78
2021/12/22 19:40:14;;;;;;;19.35;6.78;;;-0.60;93.90;;;;;;10130872;28;20040;-77
2021/12/22 19:45:07;;;;;;;20.98;7.95;;;-0.60;93.80;;;;;;10128339;28;20087;-75
2021/12/22 19:49:58;;;;;;;20.30;6.57;;;-0.60;93.80;;;;;;10125158;28;20100;-76
2021/12/22 19:54:49;;;;;;;15.65;6.15;;;-0.60;93.80;;;;;;10130291;28;20032;-76
2021/12/22 19:59:40;;;;;;;20.42;8.20;;;-0.50;93.90;;;;;;10125860;28;20497;-71
2021/12/22 20:04:32;;;;;;;19.73;7.20;;;-0.50;94.10;;;;;;10131987;28;20050;-73
2021/12/22 20:09:23;;;;;;;21.88;7.80;;;-0.50;93.80;;;;;;10128182;28;20036;-76
2021/12/22 20:14:16;;;;;;;25.40;8.57;;;-0.60;93.90;;;;;;10127278;28;20351;-75
2021/12/22 20:19:08;;;;;;;16.38;8.25;;;-0.50;93.90;;;;;;10134536;28;20107;-75
2021/12/22 20:24:00;;;;;;;23.00;8.45;;;-0.50;93.90;;;;;;10127677;28;20568;-76
2021/12/22 20:28:51;;;;;;;28.70;8.77;;;-0.50;94.10;;;;;;10128875;28;20068;-78
2021/12/22 20:33:41;;;;;;;18.30;7.85;;;-0.60;94.00;;;;;;10125885;28;20028;-73
2021/12/22 20:38:32;;;;;;;27.27;8.75;;;-0.60;94.00;;;;;;10122342;28;20528;-75
2021/12/22 20:43:23;;;;;;;20.63;7.30;;;-0.70;94.10;;;;;;10126337;28;20411;-76
2021/12/22 20:48:15;;;;;;;19.20;7.05;;;-0.70;94.10;;;;;;10129011;28;20426;-75
2021/12/22 20:53:06;;;;;;;21.17;7.90;;;-0.70;94.10;;;;;;10129190;28;20021;-76
2021/12/22 20:57:57;;;;;;;24.02;7.55;;;-0.70;94.20;;;;;;10127319;28;20402;-76
2021/12/22 21:02:48;;;;;;;20.52;7.53;;;-0.60;94.20;;;;;;10136953;28;20024;-75
2021/12/22 21:07:39;;;;;;;21.02;8.75;;;-0.60;94.10;;;;;;10136092;28;20028;-74
2021/12/22 21:12:34;;;;;;;19.48;7.60;;;-0.60;94.10;;;;;;10141430;28;20134;-75
2021/12/22 21:17:25;;;;;;;17.90;7.18;;;-0.70;94.30;;;;;;10140791;28;20021;-75
2021/12/22 21:22:16;;;;;;;19.73;8.00;;;-0.70;94.60;;;;;;10134522;28;20423;-75
2021/12/22 21:27:07;;;;;;;21.13;7.80;;;-0.70;94.30;;;;;;10127104;28;20049;-70
2021/12/22 21:31:58;;;;;;;21.02;8.52;;;-0.60;94.20;;;;;;10143598;28;20683;-74
2021/12/22 21:36:49;;;;;;;19.20;7.05;;;-0.80;94.30;;;;;;10135110;28;20028;-74
2021/12/22 21:41:40;;;;;;;20.35;8.05;;;-0.80;94.30;;;;;;10138610;28;20340;-75
2021/12/22 21:46:31;;;;;;;21.65;8.32;;;-0.80;94.30;;;;;;10126127;28;20025;-75
2021/12/22 21:51:22;;;;;;;16.48;7.38;;;-0.90;94.40;;;;;;10132906;28;20036;-74
2021/12/22 21:56:13;;;;;;;19.67;8.05;;;-0.80;94.40;;;;;;10118064;28;20052;-77
2021/12/22 22:01:03;;;;;;;19.73;7.93;;;-0.80;94.50;;;;;;10127179;28;20036;-76
2021/12/22 22:05:54;;;;;;;26.23;8.98;;;-0.90;94.80;;;;;;10125375;28;20013;-78
2021/12/22 22:10:45;;;;;;;24.05;9.77;;;-1.00;94.60;;;;;;10122429;28;20520;-78
2021/12/22 22:15:37;;;;;;;26.13;10.32;;;-0.90;94.60;;;;;;10128869;28;20438;-74
2021/12/22 22:20:28;;;;;;;24.63;8.38;;;-1.00;94.60;;;;;;10127943;28;20422;-74
2021/12/22 22:25:20;;;;;;;22.65;8.50;;;-1.00;94.60;;;;;;10124611;28;20574;-76
2021/12/22 22:30:11;;;;;;;23.50;7.72;;;-1.00;94.70;;;;;;10126760;28;20020;-73
2021/12/22 22:35:02;;;;;;;23.25;7.43;;;-1.00;94.60;;;;;;10122784;28;20052;-74
2021/12/22 22:39:53;;;;;;;27.98;8.90;;;-1.10;94.70;;;;;;10126617;28;20036;-74
2021/12/22 22:44:44;;;;;;;14.77;6.30;;;-1.10;94.60;;;;;;10115181;28;20131;-73
2021/12/22 22:49:35;;;;;;;25.50;9.52;;;-1.20;94.70;;;;;;10109798;28;20467;-74
2021/12/22 22:54:26;;;;;;;21.48;8.68;;;-1.30;94.70;;;;;;10121988;28;20094;-75
2021/12/22 22:59:17;;;;;;;18.42;5.80;;;-1.40;94.70;;;;;;10116951;28;20044;-75
2021/12/22 23:04:10;;;;;;;19.83;6.13;;;-1.40;94.80;;;;;;10108668;28;20017;-74
2021/12/22 23:09:01;;;;;;;18.75;8.18;;;-1.60;94.80;;;;;;10127154;28;20075;-74
2021/12/22 23:13:55;;;;;;;22.80;6.68;;;-1.60;95.20;;;;;;10125942;28;20051;-74
2021/12/22 23:18:47;;;;;;;23.00;6.63;;;-1.70;95.10;;;;;;10123451;28;20161;-73
2021/12/22 23:23:38;;;;;;;24.20;7.68;;;-1.60;95.40;;;;;;10115915;28;20414;-74
2021/12/22 23:28:29;;;;;;;18.20;7.45;;;-1.60;95.30;;;;;;10110256;28;20032;-75
2021/12/22 23:33:23;;;;;;;14.75;6.15;;;-1.70;95.30;;;;;;10112701;28;20518;-74
2021/12/22 23:53:39;;;;;;;18.92;5.82;;;-1.80;95.10;;;;;;10118816;28;20058;-75
2021/12/22 23:58:31;;;;;;;17.23;6.78;;;-1.80;95.20;;;;;;10103477;28;20052;-74
